Flight Number: EUR1345 Duration: 1:30
Departure: Belfast City (EGAC) at 18:30 Distance: 438 Nm
Arrival: Bruxelles National (EBBR) at 20:00 Equipment: A321

Weather Information
Belfast / Harbour, United Kingdom (EGAC) 54-36N 005-53W 0M May 22, 2018 - 03:20 PM EDT / 2018.05.22 1920 UTC
Wind: from the NE (040 degrees) at 6 MPH (5 KT):0
Visibility: greater than 7 mile(s):0 Temperature: 57 F (14 C) Dew Point: 48 F (9 C) Relative Humidity: 71% Pressure (altimeter): 30.21 in. Hg (1023 hPa)
ob: EGAC 221920Z AUTO 04005KT 9999 NCD 14/09 Q1023 cycle: 19
Sunrise: 04:10 Sunset: 20:29 (UTC)

Bruxelles National, Belgium (EBBR) 50-54N 004-32E 58M May 22, 2018 - 03:20 PM EDT / 2018.05.22 1920 UTC
Wind: from the ENE (070 degrees) at 3 MPH (3 KT) (direction variable):0
Visibility: greater than 7 mile(s):0
Sky conditions: mostly clear Weather: Cumulonimbus clouds observed Temperature: 59 F (15 C) Dew Point: 57 F (14 C) Relative Humidity: 93% Pressure (altimeter): 29.94 in. Hg (1014 hPa)
ob: EBBR 221920Z 07003KT 030V100 9999 FEW030CB 15/14 Q1014 NOSIG cycle: 19
Sunrise: 03:47 Sunset: 19:30 (UTC)

TAF:2018/05/22 18:28 TAF EBBR 221700Z 2218/2324 33005KT 8000 FEW045TCU PROB40 TEMPO 2218/2222 VRB18G30KT 4000 SHRA TSRA PROB30 TEMPO 2302/2305 4000 BR MIFG PROB40 TEMPO 2305/2310 4500 SHRA RA

Previous Pireps for this route
Date Aircraft Flight time Fuel used Landing rate On time
2013-04-03A32101.4110277-104Yes
2013-04-03A3211.4891890No
2013-05-24A32101.4310001-45No
2014-03-05A32102.2216938-637Charter
2014-12-27A32101.1780730Yes
2015-03-30A32101.299448-308Yes
(pireps marked green are flown by you)

Route map